Flight Track Log - Related Links

Times and Time Zones

All times are in EST time to prevent confusion due to time zone crossing. See the XOJ552 flight status page for this flight to view local times or setup timezone preferences in your user account.

Time Position Orientation Groundspeed Altitude Reporting Facility
EST Latitude Longitude Course Direction KTS MPH feet Rate Location/Type
Thu 01:33:22 PM 25.9089 -80.2683 56° Northeast 143 165 700  Level Miami Center
Thu 01:34:48 PM 25.9458 -80.2069 56° Northeast 229 264 5,000 2,716 Climbing Miami Center
Thu 01:35:50 PM 25.9864 -80.2661 307° West 308 354 7,400 3,197 Climbing Miami Center
Thu 01:36:50 PM 26.0239 -80.3550 295° West 315 362 11,500 3,800 Climbing Miami Center
Thu 01:37:50 PM 26.0636 -80.4439 296° West 320 368 15,000 3,350 Climbing Miami Center
Thu 01:38:50 PM 26.1114 -80.5356 300° West 325 374 18,200 3,000 Climbing Miami Center
Thu 01:39:50 PM 26.1975 -80.5961 328° Northwest 332 382 21,000 2,450 Climbing Miami Center
Thu 01:40:50 PM 26.2961 -80.6664 327° Northwest 364 419 23,100 2,100 Climbing Miami Center
Thu 01:41:50 PM 26.3986 -80.7347 329° Northwest 417 480 25,200 1,950 Climbing Miami Center
Thu 01:42:50 PM 26.5011 -80.8075 328° Northwest 425 489 27,000 900 Climbing Miami Center
Thu 01:43:50 PM 26.5953 -80.8736 328° Northwest 430 495 27,000  Level Miami Center
Thu 01:44:50 PM 26.7142 -80.9567 328° Northwest 446 513 27,000 450 Level Miami Center
Thu 01:45:50 PM 26.8206 -81.0300 328° Northwest 452 520 27,900 1,350 Climbing Miami Center
Thu 01:46:50 PM 26.9231 -81.1036 327° Northwest 452 520 29,700 1,750 Climbing Miami Center
Thu 01:47:50 PM 27.0192 -81.1700 328° Northwest 452 520 31,400 1,900 Climbing Miami Center
Thu 01:48:50 PM 27.1356 -81.2536 327° Northwest 452 520 33,500 2,150 Climbing Miami Center
Thu 01:49:50 PM 27.2397 -81.3256 328° Northwest 447 514 35,700 2,050 Climbing Miami Center
Thu 01:50:50 PM 27.3358 -81.3969 327° Northwest 432 497 37,600 1,650 Climbing Miami Center
Thu 01:51:50 PM 27.4336 -81.4661 328° Northwest 423 487 39,000 1,250 Climbing Miami Center
Thu 01:52:50 PM 27.5236 -81.5308 327° Northwest 423 487 40,100 1,000 Climbing Miami Center
Thu 01:53:50 PM 27.6194 -81.6003 327° Northwest 423 487 41,000 1,000 Climbing Miami Center
Thu 01:54:50 PM 27.7294 -81.6775 328° Northwest 423 487 42,100 678 Climbing Miami Center
Thu 01:56:47 PM 27.9222 -81.8122 328° Northwest 413 475 43,000 305 Climbing Jacksonville Center
Thu 01:57:47 PM 28.0228 -81.8864 327° Northwest 413 475 43,000  Level Jacksonville Center
Thu 01:58:47 PM 28.1256 -81.9606 328° Northwest 424 488 43,000  Level Jacksonville Center
Thu 01:59:47 PM 28.2264 -82.0350 327° Northwest 429 494 43,000 -50 Level Jacksonville Center
Thu 02:00:47 PM 28.3186 -82.1003 328° Northwest 429 494 42,900  Descending Jacksonville Center
Thu 02:01:47 PM 28.4192 -82.1750 327° Northwest 434 499 43,000 50 Climbing Jacksonville Center
Thu 02:02:47 PM 28.5197 -82.2500 327° Northwest 434 499 43,000  Level Jacksonville Center
Thu 02:03:47 PM 28.6225 -82.3203 329° Northwest 434 499 43,000  Level Jacksonville Center
Thu 02:04:47 PM 28.7269 -82.4000 326° Northwest 424 488 43,000  Level Jacksonville Center
Thu 02:05:47 PM 28.8358 -82.4589 335° Northwest 424 488 43,000  Level Jacksonville Center
Thu 02:06:47 PM 28.9508 -82.5033 341° North 424 488 43,000  Level Jacksonville Center
Thu 02:07:47 PM 29.0636 -82.5458 342° North 429 494 43,000  Level Jacksonville Center
Thu 02:08:47 PM 29.1786 -82.5906 341° North 429 494 43,000  Level Jacksonville Center
Thu 02:09:47 PM 29.2914 -82.6353 341° North 429 494 43,000  Level Jacksonville Center
Thu 02:10:47 PM 29.4061 -82.6806 341° North 429 494 43,000  Level Jacksonville Center
Thu 02:11:47 PM 29.5128 -82.7278 339° North 438 504 43,000  Level Jacksonville Center
Thu 02:12:47 PM 29.6275 -82.7731 341° North 444 511 43,000  Level Jacksonville Center
Thu 02:13:47 PM 29.7444 -82.8183 341° North 444 511 43,000  Level Jacksonville Center
Thu 02:14:47 PM 29.8614 -82.8639 341° North 444 511 43,000  Level Jacksonville Center
Thu 02:15:47 PM 29.9783 -82.9117 341° North 449 517 43,000  Level Jacksonville Center
Thu 02:16:47 PM 30.0994 -82.9575 342° North 449 517 43,000  Level Jacksonville Center
Thu 02:17:47 PM 30.2183 -83.0056 341° North 449 517 43,000  Level Jacksonville Center
Thu 02:18:47 PM 30.3353 -83.0514 341° North 449 517 43,000  Level Jacksonville Center
Thu 02:19:47 PM 30.4522 -83.0997 340° North 449 517 43,000  Level Jacksonville Center
Thu 02:20:47 PM 30.5733 -83.1339 346° North 444 511 43,000  Level Jacksonville Center
Thu 02:21:47 PM 30.6964 -83.1703 346° North 439 505 43,000  Level Jacksonville Center
Thu 02:22:47 PM 30.8194 -83.2069 346° North 439 505 43,000  Level Jacksonville Center
Thu 02:23:47 PM 30.9383 -83.2414 346° North 439 505 43,000  Level Jacksonville Center
Thu 02:24:47 PM 31.0594 -83.2806 345° North 439 505 43,000  Level Jacksonville Center
Thu 02:25:47 PM 31.1825 -83.3175 346° North 444 511 43,000  Level Jacksonville Center
Thu 02:28:05 PM 31.4800 -83.4083 345° North 456 525 43,000  Level Atlanta Center
Thu 02:29:05 PM 31.6033 -83.4439 346° North 456 525 43,000  Level Atlanta Center
Thu 02:30:05 PM 31.7286 -83.4797 346° North 456 525 43,000  Level Atlanta Center
Thu 02:31:05 PM 31.8561 -83.5181 346° North 456 525 43,000  Level Atlanta Center
Thu 02:32:05 PM 31.9814 -83.5589 345° North 456 525 43,000  Level Atlanta Center
Thu 02:33:05 PM 32.1047 -83.6000 344° North 456 525 43,000  Level Atlanta Center
Thu 02:34:05 PM 32.2281 -83.6386 345° North 456 525 43,000  Level Atlanta Center
Thu 02:35:05 PM 32.3514 -83.6750 346° North 456 525 43,000  Level Atlanta Center
Thu 02:36:05 PM 32.4725 -83.7114 346° North 456 525 43,000  Level Atlanta Center
Thu 02:37:05 PM 32.5936 -83.7528 344° North 456 525 43,000  Level Atlanta Center
Thu 02:38:05 PM 32.7147 -83.7894 346° North 451 519 43,000  Level Atlanta Center
Thu 02:39:05 PM 32.8381 -83.8261 346° North 451 519 43,000  Level Atlanta Center
Thu 02:40:05 PM 32.9592 -83.8631 346° North 451 519 43,000  Level Atlanta Center
Thu 02:41:05 PM 33.0783 -83.9050 344° North 451 519 43,000  Level Atlanta Center
Thu 02:42:05 PM 33.1972 -83.9419 345° North 439 505 43,000  Level Atlanta Center
Thu 02:43:05 PM 33.3203 -83.9792 346° North 445 512 43,000  Level Atlanta Center
Thu 02:44:05 PM 33.4269 -84.0114 346° North 445 512 43,000  Level Atlanta Center
Thu 02:45:05 PM 33.5481 -84.0489 346° North 445 512 43,000  Level Atlanta Center
Thu 02:46:05 PM 33.6669 -84.0861 345° North 445 512 43,000  Level Atlanta Center
Thu 02:47:05 PM 33.7858 -84.1239 345° North 439 505 43,000  Level Atlanta Center
Thu 02:48:05 PM 33.9089 -84.1589 347° North 439 505 43,000  Level Atlanta Center
Thu 02:49:05 PM 34.0322 -84.1992 345° North 444 511 43,000  Level Atlanta Center
Thu 02:50:05 PM 34.1531 -84.2372 345° North 444 511 43,000  Level Atlanta Center
Thu 02:51:05 PM 34.2742 -84.2775 345° North 449 517 43,000  Level Atlanta Center
Thu 02:52:05 PM 34.3950 -84.3156 345° North 449 517 43,000  Level Atlanta Center
Thu 02:53:05 PM 34.5139 -84.3539 345° North 449 517 43,000  Level Atlanta Center
Thu 02:54:05 PM 34.6369 -84.3947 345° North 449 517 43,000  Level Atlanta Center
Thu 02:55:05 PM 34.7578 -84.4306 346° North 449 517 43,000  Level Atlanta Center
Thu 02:56:05 PM 34.8808 -84.4769 343° North 454 522 43,000  Level Atlanta Center
Thu 02:57:05 PM 35.0122 -84.5206 345° North 449 517 43,000  Level Atlanta Center
Thu 02:58:05 PM 35.1350 -84.5619 345° North 449 517 43,000  Level Atlanta Center
Thu 02:59:05 PM 35.2456 -84.5983 345° North 455 524 43,000  Level Atlanta Center
Thu 03:00:05 PM 35.3706 -84.6397 345° North 455 524 43,000  Level Atlanta Center
Thu 03:01:05 PM 35.4975 -84.6817 345° North 455 524 43,000  Level Atlanta Center
Thu 03:02:05 PM 35.6206 -84.7233 345° North 455 524 43,000  Level Atlanta Center
Thu 03:03:05 PM 35.7517 -84.7628 346° North 455 524 43,000  Level Atlanta Center
Thu 03:04:05 PM 35.8764 -84.8075 344° North 455 524 43,000  Level Atlanta Center
Thu 03:05:05 PM 36.0014 -84.8472 346° North 450 518 43,000  Level Atlanta Center
Thu 03:05:56 PM 36.0947 -84.8794 344° North 457 526 43,000  Level Indianapolis Center
Thu 03:06:59 PM 36.2178 -84.9211 345° North 459 528 43,000  Level Indianapolis Center
Thu 03:08:00 PM 36.3414 -84.9636 345° North 459 528 43,000  Level Indianapolis Center
Thu 03:09:03 PM 36.4886 -85.0131 345° North 458 527 43,000  Level Indianapolis Center
Thu 03:10:07 PM 36.6122 -85.0567 344° North 460 529 43,000  Level Indianapolis Center
Thu 03:11:08 PM 36.7367 -85.0994 345° North 462 532 43,000  Level Indianapolis Center
Thu 03:12:09 PM 36.8614 -85.1422 345° North 464 534 43,000  Level Indianapolis Center
Thu 03:13:13 PM 36.9869 -85.1847 345° North 466 536 43,000  Level Indianapolis Center
Thu 03:14:14 PM 37.1192 -85.2342 343° North 468 539 43,000  Level Indianapolis Center
Thu 03:15:15 PM 37.2392 -85.2947 338° Northwest 464 534 43,000  Level Indianapolis Center
Thu 03:16:17 PM 37.3786 -85.3664 338° Northwest 462 532 43,000  Level Indianapolis Center
Thu 03:17:21 PM 37.4992 -85.4272 338° Northwest 463 533 43,000  Level Indianapolis Center
Thu 03:18:21 PM 37.6203 -85.4881 338° Northwest 466 536 43,000  Level Indianapolis Center
Thu 03:19:24 PM 37.7403 -85.5472 339° North 467 537 43,000  Level Indianapolis Center
Thu 03:20:25 PM 37.8569 -85.6100 337° Northwest 460 529 43,000  Level Indianapolis Center
Thu 03:21:29 PM 37.9739 -85.6711 338° Northwest 455 524 43,000  Level Indianapolis Center
Thu 03:22:30 PM 38.0900 -85.7319 338° Northwest 452 520 43,000  Level Indianapolis Center
Thu 03:23:33 PM 38.2311 -85.8047 338° Northwest 452 520 43,000  Level Indianapolis Center
Thu 03:24:34 PM 38.3481 -85.8664 338° Northwest 453 521 43,000  Level Indianapolis Center
Thu 03:25:37 PM 38.4647 -85.9278 338° Northwest 452 520 43,000  Level Indianapolis Center
Thu 03:26:38 PM 38.5806 -85.9881 338° Northwest 451 519 43,000  Level Indianapolis Center
Thu 03:27:42 PM 38.6964 -86.0494 338° Northwest 450 518 43,000  Level Indianapolis Center
Thu 03:28:42 PM 38.8119 -86.1111 337° Northwest 449 517 43,000  Level Indianapolis Center
Thu 03:29:46 PM 38.9353 -86.1772 337° Northwest 443 510 43,000  Level Indianapolis Center
Thu 03:30:47 PM 39.0489 -86.2372 338° Northwest 442 509 43,000  Level Indianapolis Center
Thu 03:31:49 PM 39.1614 -86.2978 337° Northwest 440 506 43,000  Level Indianapolis Center
Thu 03:32:52 PM 39.2992 -86.3719 337° Northwest 444 511 43,000  Level Indianapolis Center
Thu 03:33:53 PM 39.4136 -86.4344 337° Northwest 445 512 43,000  Level Indianapolis Center
Thu 03:34:54 PM 39.5289 -86.4989 337° Northwest 448 516 43,000  Level Indianapolis Center
Thu 03:35:56 PM 39.6439 -86.5631 337° Northwest 446 513 43,000  Level Indianapolis Center
Thu 03:36:59 PM 39.7575 -86.6247 337° Northwest 439 505 43,000  Level Indianapolis Center
Thu 03:38:01 PM 39.8708 -86.6864 337° Northwest 438 504 43,000  Level Indianapolis Center
Thu 03:39:02 PM 39.9850 -86.7497 337° Northwest 443 510 43,000  Level Indianapolis Center
Thu 03:40:06 PM 40.0969 -86.8128 337° Northwest 439 505 43,000  Level Indianapolis Center
Thu 03:40:45 PM 40.1953 -86.8386 349° North 452 520 43,000  Level Chicago Center
Thu 03:41:47 PM 40.3231 -86.8642 351° North 463 533 43,000  Level Chicago Center
Thu 03:42:48 PM 40.4486 -86.8903 351° North 458 527 43,000 -341 Level Chicago Center
Thu 03:43:50 PM 40.5731 -86.9128 352° North 450 518 42,300 -1,694 Descending Chicago Center
Thu 03:44:52 PM 40.7156 -86.9414 351° North 447 514 39,500 -2,516 Descending Chicago Center
Thu 03:45:54 PM 40.8392 -86.9661 351° North 450 518 37,100 -2,371 Descending Chicago Center
Thu 03:46:56 PM 40.9678 -86.9936 351° North 462 532 34,600 -1,984 Descending Chicago Center
Thu 03:47:58 PM 41.0978 -87.0164 352° North 470 541 33,000 -878 Descending Chicago Center
Thu 03:48:59 PM 41.2228 -87.0436 351° North 462 532 32,800 -976 Descending Chicago Center
Thu 03:50:01 PM 41.3742 -87.0758 351° North 462 532 31,000 -1,742 Descending Chicago Center
Thu 03:51:03 PM 41.5006 -87.1003 352° North 462 532 29,200 -1,839 Descending Chicago Center
Thu 03:52:05 PM 41.6233 -87.1269 351° North 452 520 27,200 -1,935 Descending Chicago Center
Thu 03:53:07 PM 41.7433 -87.1511 351° North 443 510 25,200 -2,419 Descending Chicago Center
Thu 03:54:09 PM 41.8586 -87.1758 351° North 428 493 22,200 -2,516 Descending Chicago Center
Thu 03:55:11 PM 41.9469 -87.2656 323° Northwest 334 384 20,000 -1,805 Descending Chicago Center
Thu 03:56:12 PM 42.0056 -87.3400 317° Northwest 300 345 18,500 -1,902 Descending Chicago Center
Thu 03:57:14 PM 42.0681 -87.4194 317° Northwest 308 354 16,100 -2,032 Descending Chicago Center
Thu 03:58:16 PM 42.1297 -87.4978 317° Northwest 307 353 14,300 -2,274 Descending Chicago Center
Thu 03:59:18 PM 42.1886 -87.5725 317° Northwest 296 341 11,400 -2,710 Descending Chicago Center
Thu 04:00:20 PM 42.2419 -87.6386 317° Northwest 270 311 8,700 -2,516 Descending Chicago Center
Thu 04:01:22 PM 42.3206 -87.6597 349° North 275 316 6,200 -1,887 Descending Chicago Center
Thu 04:02:24 PM 42.3803 -87.6428 12° North 260 299 4,800 -1,258 Descending Chicago Center
Thu 04:03:26 PM 42.4447 -87.6589 350° North 236 272 3,600 -726 Descending Chicago Center
Thu 04:04:28 PM 42.4875 -87.7033 323° Northwest 218 251 3,300 -495 Descending Chicago Center
Thu 04:06:40 PM 42.4667 -87.8000 254° West 134 154 2,000 -625 Descending Chicago TRACON
Thu 04:07:40 PM 42.4333 -87.8333 216° Southwest 117 135 1,300 -700 Descending Chicago TRACON

Login

Don't have an account? Register now (free) for customized features, flight alerts, and more!